Ferreira, South Africa
Current Conditions -  °F | °C
As of 2:00 PM on Thursday 29 Jan 2015 (Local Time) from FABL Reporting Station
Scattered Clouds Scattered Clouds  
Wind Chill: 88°   Ceiling: Unl
Heat Index: 88°   Visibility: 6mi
Dew Point: 43°   Wind: 7mph
Humidity: 21%   Direction: 180°S
Pressure: 30.06"   Gusts: NA
Location:  29.2°S, 26.18°E
Report Text: FABL 291200Z 18006KT 9999 SCT060TCU 31/06 Q1018 NOSIG
Loading
Personal Weather Stations






























Interactive Weather Map New forecast layout! Learn more

10-Day Weather Forecast

Advertisements
Track Severe Weather on mobile